Brooke — WDB2356 — position and weather

sailwx.info

Track history (hours):
 
Tides and Currents Weather Stations Pressure Air Temp Water Temp Dewpoint Dewpoint Depression Visibility Wind Speed Wind Dir Waves Ship Positions

Brooke

Owner: MARTIN OPERATING PARTNERSHIP LP, La Porte, TX. More information available from US FCC via Universal Licensing System and Coast Guard Vessel Documentation Center.

Last reported at 2018-Jun-10 03:42 UTC. Time now 2018-Jun-18 22:45 UTC.
Position N 29°51' W 091°56'.
Warning: this ship's position is 8 days out of date.

Length 20 m.

Type: Towing. MMSI: 366875030.

Date/timePositionNaut miles runAvg speedWind from/ knotsBaromVisibWave heightAir tempDewpointWater temp
2018-Jun-10 03:42N 29°51' W 091°56'1 4.6
2018-Jun-10 03:29N 29°50' W 091°57'2 4.8
2018-Jun-10 03:00N 29°50' W 091°60'2 5.0
2018-Jun-10 02:30N 29°49' W 092°02'2 4.4
2018-Jun-10 02:00N 29°48' W 092°05'2 4.4
2018-Jun-10 01:30N 29°47' W 092°07'2 4.3
2018-Jun-10 01:00N 29°47' W 092°10'2 4.0
2018-Jun-10 00:30N 29°47' W 092°12'1 1.7
2018-Jun-10 00:00N 29°47' W 092°13'2 3.1
2018-Jun-09 23:30N 29°48' W 092°14'1 1.2
2018-Jun-09 23:00N 29°48' W 092°15'0 0.0
2018-Jun-09 22:30N 29°48' W 092°15'1 1.7
2018-Jun-09 22:00N 29°49' W 092°16'2 3.6
2018-Jun-09 21:30N 29°50' W 092°18'2 3.7
2018-Jun-09 21:00N 29°50' W 092°20'2 3.6
2018-Jun-09 20:30N 29°51' W 092°22'2 3.7
2018-Jun-09 19:57N 29°53' W 092°23'22 3.1
2018-Jun-09 12:52N 29°58' W 092°48'10 3.8
2018-Jun-09 10:20N 29°56' W 092°58'1 2.3
2018-Jun-09 09:59N 29°56' W 092°59'2 3.9
2018-Jun-09 09:30N 29°56' W 093°02'2 3.3
2018-Jun-09 09:00N 29°56' W 093°03'2 3.4
2018-Jun-09 08:28N 29°56' W 093°06'2 4.0
2018-Jun-09 08:00N 29°56' W 093°08'2 3.5
2018-Jun-09 07:30N 29°56' W 093°10'1 2.1
2018-Jun-09 07:00N 29°57' W 093°10'1 2.7
2018-Jun-09 06:30N 29°58' W 093°11'1 2.7
2018-Jun-09 06:00N 29°59' W 093°12'1 2.3
2018-Jun-09 05:30N 29°60' W 093°13'1 2.8
2018-Jun-09 05:00N 30°01' W 093°14'1 2.4
2018-Jun-09 04:30N 30°02' W 093°15'1 2.6
2018-Jun-09 04:00N 30°03' W 093°16'1 2.7
2018-Jun-09 03:30N 30°04' W 093°16'1 2.9
2018-Jun-09 03:00N 30°05' W 093°18'1 1.1
2018-Jun-09 02:30N 30°06' W 093°18'0 0.7
2018-Jun-09 02:00N 30°06' W 093°18'0 0.0
2018-Jun-09 01:30N 30°06' W 093°18'0 0.0
2018-Jun-09 00:58N 30°06' W 093°18'0 0.0
2018-Jun-09 00:30N 30°06' W 093°18'0 0.0
2018-Jun-09 00:00N 30°06' W 093°18'0 0.0
2018-Jun-08 23:29N 30°06' W 093°18'0 0.0
2018-Jun-08 23:00N 30°06' W 093°18'0 0.0
2018-Jun-08 22:30N 30°06' W 093°18'0 0.0
2018-Jun-08 22:00N 30°06' W 093°18'0 0.0
2018-Jun-08 21:30N 30°06' W 093°18'0 0.0
2018-Jun-08 21:00N 30°06' W 093°18'0 0.0
2018-Jun-08 20:29N 30°06' W 093°18'0 0.0
2018-Jun-08 20:00N 30°06' W 093°18'0 0.0
2018-Jun-08 19:30N 30°06' W 093°18'0 0.0
2018-Jun-08 19:00N 30°06' W 093°18'0 0.0
2018-Jun-08 18:30N 30°06' W 093°18'0 0.0
2018-Jun-08 18:00N 30°06' W 093°18'0 0.0
2018-Jun-08 17:30N 30°06' W 093°18'0 0.0
2018-Jun-08 17:00N 30°06' W 093°18'0 0.0
2018-Jun-08 16:30N 30°06' W 093°18'0 0.0
2018-Jun-08 16:00N 30°06' W 093°18'0 0.0
2018-Jun-08 15:29N 30°06' W 093°18'0 0.0
2018-Jun-08 15:00N 30°06' W 093°18'0 0.0
2018-Jun-08 14:30N 30°06' W 093°18'0 0.0
2018-Jun-08 13:59N 30°06' W 093°18'0 0.0
2018-Jun-08 13:30N 30°06' W 093°18'0 0.0
2018-Jun-08 13:00N 30°06' W 093°18'0 0.0
2018-Jun-08 12:30N 30°06' W 093°18'0 0.0
2018-Jun-08 12:00N 30°06' W 093°18'0 0.0
2018-Jun-08 11:30N 30°06' W 093°18'0 0.1
2018-Jun-08 11:00N 30°06' W 093°18'0 0.1
2018-Jun-08 10:30N 30°06' W 093°18'0 0.1
2018-Jun-08 10:00N 30°06' W 093°18'0 0.0
2018-Jun-08 09:30N 30°06' W 093°18'0 0.0
2018-Jun-08 09:00N 30°06' W 093°18'0 0.0
2018-Jun-08 08:30N 30°06' W 093°18'0 0.1
2018-Jun-08 08:00N 30°06' W 093°18'0 0.0
2018-Jun-08 07:30N 30°06' W 093°18'1 1.6
2018-Jun-08 07:00N 30°06' W 093°19'2 4.4
2018-Jun-08 06:30N 30°04' W 093°21'1 2.9
2018-Jun-08 06:00N 30°04' W 093°22'0 0.1
2018-Jun-08 05:30N 30°04' W 093°22'0 0.0
2018-Jun-08 05:00N 30°04' W 093°22'0 0.1
2018-Jun-08 04:30N 30°04' W 093°22'2 4.0
2018-Jun-08 04:00N 30°04' W 093°25'2 4.8
2018-Jun-08 03:30N 30°04' W 093°27'2 4.8
2018-Jun-08 03:00N 30°04' W 093°30'2 4.8
2018-Jun-08 02:30N 30°04' W 093°33'1 2.8
2018-Jun-08 02:00N 30°04' W 093°35'3 5.1
2018-Jun-08 01:30N 30°04' W 093°38'3 5.2
2018-Jun-08 00:59N 30°04' W 093°41'3 5.2
2018-Jun-08 00:30N 30°03' W 093°44'3 5.4
2018-Jun-08 00:00N 30°01' W 093°45'2 3.9
2018-Jun-07 23:30N 29°60' W 093°47'3 6.4
2018-Jun-07 23:00N 29°58' W 093°51'3 5.4
2018-Jun-07 22:30N 29°56' W 093°52'3 5.9
2018-Jun-07 22:00N 29°54' W 093°54'3 6.2
2018-Jun-07 21:30N 29°51' W 093°57'3 5.4
2018-Jun-07 21:00N 29°49' W 093°58'2 4.8
2018-Jun-07 20:31N 29°48' W 094°01'2 4.5
2018-Jun-07 20:00N 29°46' W 094°03'2 4.5
2018-Jun-07 19:30N 29°45' W 094°05'2 4.2
2018-Jun-07 19:00N 29°43' W 094°06'2 4.5
2018-Jun-07 18:30N 29°42' W 094°08'2 3.9
2018-Jun-07 18:00N 29°41' W 094°10'2 4.4
2018-Jun-07 17:30N 29°40' W 094°13'2 4.6
2018-Jun-07 17:00N 29°39' W 094°15'2 3.8
2018-Jun-07 16:30N 29°39' W 094°17'2 3.5
2018-Jun-07 16:00N 29°38' W 094°19'2 4.3
2018-Jun-07 15:30N 29°37' W 094°21'1 2.5
2018-Jun-07 14:58N 29°36' W 094°22'0 0.1
2018-Jun-07 14:30N 29°36' W 094°22'0 0.3
2018-Jun-07 13:55N 29°36' W 094°23'0 0.4
2018-Jun-07 13:30N 29°36' W 094°23'0 0.8
2018-Jun-07 13:00N 29°36' W 094°23'1 3.0
2018-Jun-07 12:30N 29°35' W 094°25'2 3.0
2018-Jun-07 12:00N 29°34' W 094°26'17 4.7
2018-Jun-07 08:28N 29°26' W 094°42'2 5.0
2018-Jun-07 08:00N 29°25' W 094°44'2 4.2
2018-Jun-07 07:30N 29°23' W 094°46'3 5.5
2018-Jun-07 07:00N 29°21' W 094°48'1 1.6
2018-Jun-07 06:29N 29°21' W 094°49'1 1.7
2018-Jun-07 06:00N 29°20' W 094°50'3 5.4
2018-Jun-07 05:30N 29°19' W 094°52'2 4.9
2018-Jun-07 05:00N 29°17' W 094°54'3 5.0
2018-Jun-07 04:30N 29°17' W 094°57'2 4.5
2018-Jun-07 04:00N 29°16' W 094°60'2 4.7
2018-Jun-07 03:30N 29°14' W 095°01'1 2.6
2018-Jun-07 03:00N 29°13' W 095°02'1 1.5
2018-Jun-07 02:30N 29°12' W 095°03'2 3.8
2018-Jun-07 02:00N 29°11' W 095°05'2 4.6
2018-Jun-07 01:30N 29°10' W 095°07'3 5.2
2018-Jun-07 01:00N 29°09' W 095°09'1 2.7
2018-Jun-07 00:30N 29°08' W 095°10'2 3.9
2018-Jun-07 00:00N 29°07' W 095°12'2 4.5
2018-Jun-06 23:30N 29°04' W 095°13'2 4.6
2018-Jun-06 23:00N 29°02' W 095°14'2 4.0
2018-Jun-06 22:30N 29°00' W 095°15'3 4.0
2018-Jun-06 21:51N 28°59' W 095°17'4 4.1
2018-Jun-06 20:48N 28°55' W 095°20'  
2018-Jun-03 08:36N 27°49' W 097°24'  
Track history (hours):
 
Tides and Currents Weather Stations Pressure Air Temp Water Temp Dewpoint Dewpoint Depression Visibility Wind Speed Wind Dir Waves Ship Positions

Brooke

Owner: MARTIN OPERATING PARTNERSHIP LP, La Porte, TX. More information available from US FCC via Universal Licensing System and Coast Guard Vessel Documentation Center.

Last reported at 2018-Jun-10 03:42 UTC. Time now 2018-Jun-18 22:45 UTC.
Position N 29°51' W 091°56'.
Warning: this ship's position is 8 days out of date.

Length 20 m.

Type: Towing. MMSI: 366875030.

Date/timePositionNaut miles runAvg speedWind from/ knotsBaromVisibWave heightAir tempDewpointWater temp
2018-Jun-10 03:42N 29°51' W 091°56'1 4.6
2018-Jun-10 03:29N 29°50' W 091°57'2 4.8
2018-Jun-10 03:00N 29°50' W 091°60'2 5.0
2018-Jun-10 02:30N 29°49' W 092°02'2 4.4
2018-Jun-10 02:00N 29°48' W 092°05'2 4.4
2018-Jun-10 01:30N 29°47' W 092°07'2 4.3
2018-Jun-10 01:00N 29°47' W 092°10'2 4.0
2018-Jun-10 00:30N 29°47' W 092°12'1 1.7
2018-Jun-10 00:00N 29°47' W 092°13'2 3.1
2018-Jun-09 23:30N 29°48' W 092°14'1 1.2
2018-Jun-09 23:00N 29°48' W 092°15'0 0.0
2018-Jun-09 22:30N 29°48' W 092°15'1 1.7
2018-Jun-09 22:00N 29°49' W 092°16'2 3.6
2018-Jun-09 21:30N 29°50' W 092°18'2 3.7
2018-Jun-09 21:00N 29°50' W 092°20'2 3.6
2018-Jun-09 20:30N 29°51' W 092°22'2 3.7
2018-Jun-09 19:57N 29°53' W 092°23'22 3.1
2018-Jun-09 12:52N 29°58' W 092°48'10 3.8
2018-Jun-09 10:20N 29°56' W 092°58'1 2.3
2018-Jun-09 09:59N 29°56' W 092°59'2 3.9
2018-Jun-09 09:30N 29°56' W 093°02'2 3.3
2018-Jun-09 09:00N 29°56' W 093°03'2 3.4
2018-Jun-09 08:28N 29°56' W 093°06'2 4.0
2018-Jun-09 08:00N 29°56' W 093°08'2 3.5
2018-Jun-09 07:30N 29°56' W 093°10'1 2.1
2018-Jun-09 07:00N 29°57' W 093°10'1 2.7
2018-Jun-09 06:30N 29°58' W 093°11'1 2.7
2018-Jun-09 06:00N 29°59' W 093°12'1 2.3
2018-Jun-09 05:30N 29°60' W 093°13'1 2.8
2018-Jun-09 05:00N 30°01' W 093°14'1 2.4
2018-Jun-09 04:30N 30°02' W 093°15'1 2.6
2018-Jun-09 04:00N 30°03' W 093°16'1 2.7
2018-Jun-09 03:30N 30°04' W 093°16'1 2.9
2018-Jun-09 03:00N 30°05' W 093°18'1 1.1
2018-Jun-09 02:30N 30°06' W 093°18'0 0.7
2018-Jun-09 02:00N 30°06' W 093°18'0 0.0
2018-Jun-09 01:30N 30°06' W 093°18'0 0.0
2018-Jun-09 00:58N 30°06' W 093°18'0 0.0
2018-Jun-09 00:30N 30°06' W 093°18'0 0.0
2018-Jun-09 00:00N 30°06' W 093°18'0 0.0
2018-Jun-08 23:29N 30°06' W 093°18'0 0.0
2018-Jun-08 23:00N 30°06' W 093°18'0 0.0
2018-Jun-08 22:30N 30°06' W 093°18'0 0.0
2018-Jun-08 22:00N 30°06' W 093°18'0 0.0
2018-Jun-08 21:30N 30°06' W 093°18'0 0.0
2018-Jun-08 21:00N 30°06' W 093°18'0 0.0
2018-Jun-08 20:29N 30°06' W 093°18'0 0.0
2018-Jun-08 20:00N 30°06' W 093°18'0 0.0
2018-Jun-08 19:30N 30°06' W 093°18'0 0.0
2018-Jun-08 19:00N 30°06' W 093°18'0 0.0
2018-Jun-08 18:30N 30°06' W 093°18'0 0.0
2018-Jun-08 18:00N 30°06' W 093°18'0 0.0
2018-Jun-08 17:30N 30°06' W 093°18'0 0.0
2018-Jun-08 17:00N 30°06' W 093°18'0 0.0
2018-Jun-08 16:30N 30°06' W 093°18'0 0.0
2018-Jun-08 16:00N 30°06' W 093°18'0 0.0
2018-Jun-08 15:29N 30°06' W 093°18'0 0.0
2018-Jun-08 15:00N 30°06' W 093°18'0 0.0
2018-Jun-08 14:30N 30°06' W 093°18'0 0.0
2018-Jun-08 13:59N 30°06' W 093°18'0 0.0
2018-Jun-08 13:30N 30°06' W 093°18'0 0.0
2018-Jun-08 13:00N 30°06' W 093°18'0 0.0
2018-Jun-08 12:30N 30°06' W 093°18'0 0.0
2018-Jun-08 12:00N 30°06' W 093°18'0 0.0
2018-Jun-08 11:30N 30°06' W 093°18'0 0.1
2018-Jun-08 11:00N 30°06' W 093°18'0 0.1
2018-Jun-08 10:30N 30°06' W 093°18'0 0.1
2018-Jun-08 10:00N 30°06' W 093°18'0 0.0
2018-Jun-08 09:30N 30°06' W 093°18'0 0.0
2018-Jun-08 09:00N 30°06' W 093°18'0 0.0
2018-Jun-08 08:30N 30°06' W 093°18'0 0.1
2018-Jun-08 08:00N 30°06' W 093°18'0 0.0
2018-Jun-08 07:30N 30°06' W 093°18'1 1.6
2018-Jun-08 07:00N 30°06' W 093°19'2 4.4
2018-Jun-08 06:30N 30°04' W 093°21'1 2.9
2018-Jun-08 06:00N 30°04' W 093°22'0 0.1
2018-Jun-08 05:30N 30°04' W 093°22'0 0.0
2018-Jun-08 05:00N 30°04' W 093°22'0 0.1
2018-Jun-08 04:30N 30°04' W 093°22'2 4.0
2018-Jun-08 04:00N 30°04' W 093°25'2 4.8
2018-Jun-08 03:30N 30°04' W 093°27'2 4.8
2018-Jun-08 03:00N 30°04' W 093°30'2 4.8
2018-Jun-08 02:30N 30°04' W 093°33'1 2.8
2018-Jun-08 02:00N 30°04' W 093°35'3 5.1
2018-Jun-08 01:30N 30°04' W 093°38'3 5.2
2018-Jun-08 00:59N 30°04' W 093°41'3 5.2
2018-Jun-08 00:30N 30°03' W 093°44'3 5.4
2018-Jun-08 00:00N 30°01' W 093°45'2 3.9
2018-Jun-07 23:30N 29°60' W 093°47'3 6.4
2018-Jun-07 23:00N 29°58' W 093°51'3 5.4
2018-Jun-07 22:30N 29°56' W 093°52'3 5.9
2018-Jun-07 22:00N 29°54' W 093°54'3 6.2
2018-Jun-07 21:30N 29°51' W 093°57'3 5.4
2018-Jun-07 21:00N 29°49' W 093°58'2 4.8
2018-Jun-07 20:31N 29°48' W 094°01'2 4.5
2018-Jun-07 20:00N 29°46' W 094°03'2 4.5
2018-Jun-07 19:30N 29°45' W 094°05'2 4.2
2018-Jun-07 19:00N 29°43' W 094°06'2 4.5
2018-Jun-07 18:30N 29°42' W 094°08'2 3.9
2018-Jun-07 18:00N 29°41' W 094°10'2 4.4
2018-Jun-07 17:30N 29°40' W 094°13'2 4.6
2018-Jun-07 17:00N 29°39' W 094°15'2 3.8
2018-Jun-07 16:30N 29°39' W 094°17'2 3.5
2018-Jun-07 16:00N 29°38' W 094°19'2 4.3
2018-Jun-07 15:30N 29°37' W 094°21'1 2.5
2018-Jun-07 14:58N 29°36' W 094°22'0 0.1
2018-Jun-07 14:30N 29°36' W 094°22'0 0.3
2018-Jun-07 13:55N 29°36' W 094°23'0 0.4
2018-Jun-07 13:30N 29°36' W 094°23'0 0.8
2018-Jun-07 13:00N 29°36' W 094°23'1 3.0
2018-Jun-07 12:30N 29°35' W 094°25'2 3.0
2018-Jun-07 12:00N 29°34' W 094°26'17 4.7
2018-Jun-07 08:28N 29°26' W 094°42'2 5.0
2018-Jun-07 08:00N 29°25' W 094°44'2 4.2
2018-Jun-07 07:30N 29°23' W 094°46'3 5.5
2018-Jun-07 07:00N 29°21' W 094°48'1 1.6
2018-Jun-07 06:29N 29°21' W 094°49'1 1.7
2018-Jun-07 06:00N 29°20' W 094°50'3 5.4
2018-Jun-07 05:30N 29°19' W 094°52'2 4.9
2018-Jun-07 05:00N 29°17' W 094°54'3 5.0
2018-Jun-07 04:30N 29°17' W 094°57'2 4.5
2018-Jun-07 04:00N 29°16' W 094°60'2 4.7
2018-Jun-07 03:30N 29°14' W 095°01'1 2.6
2018-Jun-07 03:00N 29°13' W 095°02'1 1.5
2018-Jun-07 02:30N 29°12' W 095°03'2 3.8
2018-Jun-07 02:00N 29°11' W 095°05'2 4.6
2018-Jun-07 01:30N 29°10' W 095°07'3 5.2
2018-Jun-07 01:00N 29°09' W 095°09'1 2.7
2018-Jun-07 00:30N 29°08' W 095°10'2 3.9
2018-Jun-07 00:00N 29°07' W 095°12'2 4.5
2018-Jun-06 23:30N 29°04' W 095°13'2 4.6
2018-Jun-06 23:00N 29°02' W 095°14'2 4.0
2018-Jun-06 22:30N 29°00' W 095°15'3 4.0
2018-Jun-06 21:51N 28°59' W 095°17'4 4.1
2018-Jun-06 20:48N 28°55' W 095°20'  
2018-Jun-03 08:36N 27°49' W 097°24'  

Dump ship's entire track history